sensor_id;sensor_type;location;lat;lon;timestamp;P1;durP1;ratioP1;P2;durP2;ratioP2
33844;SDS011;20145;43.118;25.694;2022-09-27T00:01:02;16.40;;;14.85;;
33844;SDS011;20145;43.118;25.694;2022-09-27T00:03:29;17.02;;;15.38;;
33844;SDS011;20145;43.118;25.694;2022-09-27T00:06:14;16.25;;;14.75;;
33844;SDS011;20145;43.118;25.694;2022-09-27T00:08:44;18.60;;;15.35;;
33844;SDS011;20145;43.118;25.694;2022-09-27T00:13:57;17.70;;;15.68;;
33844;SDS011;20145;43.118;25.694;2022-09-27T00:16:27;17.88;;;16.00;;
33844;SDS011;20145;43.118;25.694;2022-09-27T00:19:02;18.05;;;16.33;;
33844;SDS011;20145;43.118;25.694;2022-09-27T00:21:29;17.65;;;15.88;;
33844;SDS011;20145;43.118;25.694;2022-09-27T00:23:56;16.95;;;14.48;;
33844;SDS011;20145;43.118;25.694;2022-09-27T00:26:23;18.38;;;16.50;;
33844;SDS011;20145;43.118;25.694;2022-09-27T00:28:49;17.83;;;16.02;;
33844;SDS011;20145;43.118;25.694;2022-09-27T00:31:22;16.98;;;15.18;;
33844;SDS011;20145;43.118;25.694;2022-09-27T00:33:50;17.52;;;15.82;;
33844;SDS011;20145;43.118;25.694;2022-09-27T00:36:17;16.77;;;13.38;;
33844;SDS011;20145;43.118;25.694;2022-09-27T00:38:44;13.88;;;12.45;;
33844;SDS011;20145;43.118;25.694;2022-09-27T00:41:18;15.80;;;14.30;;
33844;SDS011;20145;43.118;25.694;2022-09-27T00:43:53;17.50;;;12.75;;
33844;SDS011;20145;43.118;25.694;2022-09-27T00:48:56;14.10;;;12.73;;
33844;SDS011;20145;43.118;25.694;2022-09-27T00:51:44;13.80;;;12.18;;
33844;SDS011;20145;43.118;25.694;2022-09-27T00:54:13;13.05;;;11.93;;
33844;SDS011;20145;43.118;25.694;2022-09-27T00:56:42;14.38;;;12.93;;
33844;SDS011;20145;43.118;25.694;2022-09-27T00:59:28;12.05;;;10.95;;
33844;SDS011;20145;43.118;25.694;2022-09-27T01:01:58;12.90;;;11.55;;
33844;SDS011;20145;43.118;25.694;2022-09-27T01:04:25;12.23;;;11.02;;
33844;SDS011;20145;43.118;25.694;2022-09-27T01:06:53;11.13;;;9.27;;
33844;SDS011;20145;43.118;25.694;2022-09-27T01:09:19;10.38;;;9.38;;
33844;SDS011;20145;43.118;25.694;2022-09-27T01:12:06;13.27;;;9.55;;
33844;SDS011;20145;43.118;25.694;2022-09-27T01:29:03;10.35;;;9.45;;
33844;SDS011;20145;43.118;25.694;2022-09-27T01:32:41;10.18;;;9.05;;
33844;SDS011;20145;43.118;25.694;2022-09-27T01:34:47;9.98;;;9.05;;
33844;SDS011;20145;43.118;25.694;2022-09-27T01:39:58;10.75;;;9.75;;
33844;SDS011;20145;43.118;25.694;2022-09-27T01:45:04;10.85;;;9.93;;
33844;SDS011;20145;43.118;25.694;2022-09-27T01:50:26;14.02;;;11.65;;
33844;SDS011;20145;43.118;25.694;2022-09-27T01:53:00;12.95;;;11.65;;
33844;SDS011;20145;43.118;25.694;2022-09-27T01:55:31;15.00;;;11.23;;
33844;SDS011;20145;43.118;25.694;2022-09-27T02:00:51;12.20;;;10.93;;
33844;SDS011;20145;43.118;25.694;2022-09-27T02:03:20;11.40;;;10.25;;
33844;SDS011;20145;43.118;25.694;2022-09-27T02:05:52;11.93;;;10.82;;
33844;SDS011;20145;43.118;25.694;2022-09-27T02:10:49;11.07;;;9.95;;
33844;SDS011;20145;43.118;25.694;2022-09-27T02:13:22;11.90;;;9.57;;
33844;SDS011;20145;43.118;25.694;2022-09-27T02:19:17;10.15;;;9.10;;
33844;SDS011;20145;43.118;25.694;2022-09-27T02:21:44;12.10;;;10.65;;
33844;SDS011;20145;43.118;25.694;2022-09-27T02:26:45;13.80;;;11.52;;
33844;SDS011;20145;43.118;25.694;2022-09-27T02:29:20;11.95;;;10.85;;
33844;SDS011;20145;43.118;25.694;2022-09-27T02:31:53;12.27;;;10.73;;
33844;SDS011;20145;43.118;25.694;2022-09-27T02:34:20;12.77;;;10.63;;
33844;SDS011;20145;43.118;25.694;2022-09-27T02:36:48;12.70;;;11.40;;
33844;SDS011;20145;43.118;25.694;2022-09-27T02:39:17;11.77;;;10.40;;
33844;SDS011;20145;43.118;25.694;2022-09-27T02:41:44;11.15;;;10.10;;
33844;SDS011;20145;43.118;25.694;2022-09-27T02:44:10;12.65;;;10.77;;
33844;SDS011;20145;43.118;25.694;2022-09-27T03:01:03;13.95;;;11.38;;
33844;SDS011;20145;43.118;25.694;2022-09-27T03:03:51;13.38;;;11.68;;
33844;SDS011;20145;43.118;25.694;2022-09-27T03:06:23;13.27;;;10.88;;
33844;SDS011;20145;43.118;25.694;2022-09-27T03:08:50;12.20;;;10.85;;
33844;SDS011;20145;43.118;25.694;2022-09-27T03:11:15;12.38;;;11.18;;
33844;SDS011;20145;43.118;25.694;2022-09-27T03:13:42;12.98;;;11.68;;
33844;SDS011;20145;43.118;25.694;2022-09-27T03:16:08;14.07;;;10.88;;
33844;SDS011;20145;43.118;25.694;2022-09-27T03:18:34;13.57;;;12.18;;
33844;SDS011;20145;43.118;25.694;2022-09-27T03:20:59;13.93;;;12.52;;
33844;SDS011;20145;43.118;25.694;2022-09-27T03:23:25;13.52;;;11.93;;
33844;SDS011;20145;43.118;25.694;2022-09-27T03:25:51;13.20;;;11.90;;
33844;SDS011;20145;43.118;25.694;2022-09-27T03:28:17;14.40;;;12.77;;
33844;SDS011;20145;43.118;25.694;2022-09-27T03:30:43;12.32;;;11.13;;
33844;SDS011;20145;43.118;25.694;2022-09-27T03:33:10;12.90;;;11.63;;
33844;SDS011;20145;43.118;25.694;2022-09-27T03:35:37;12.10;;;10.60;;
33844;SDS011;20145;43.118;25.694;2022-09-27T03:38:03;12.02;;;10.93;;
33844;SDS011;20145;43.118;25.694;2022-09-27T03:40:29;13.77;;;12.15;;
33844;SDS011;20145;43.118;25.694;2022-09-27T03:42:55;12.10;;;10.48;;
33844;SDS011;20145;43.118;25.694;2022-09-27T03:45:20;13.13;;;11.82;;
33844;SDS011;20145;43.118;25.694;2022-09-27T03:47:46;14.73;;;13.23;;
33844;SDS011;20145;43.118;25.694;2022-09-27T03:50:12;14.20;;;12.95;;
33844;SDS011;20145;43.118;25.694;2022-09-27T03:52:38;16.33;;;14.68;;
33844;SDS011;20145;43.118;25.694;2022-09-27T03:55:07;18.08;;;15.68;;
33844;SDS011;20145;43.118;25.694;2022-09-27T03:57:33;15.35;;;13.90;;
33844;SDS011;20145;43.118;25.694;2022-09-27T03:59:58;16.92;;;15.23;;
33844;SDS011;20145;43.118;25.694;2022-09-27T04:02:25;18.15;;;15.88;;
33844;SDS011;20145;43.118;25.694;2022-09-27T04:04:51;17.70;;;15.82;;
33844;SDS011;20145;43.118;25.694;2022-09-27T04:07:16;17.50;;;15.57;;
33844;SDS011;20145;43.118;25.694;2022-09-27T04:09:42;17.08;;;15.27;;
33844;SDS011;20145;43.118;25.694;2022-09-27T04:12:08;18.40;;;16.55;;
33844;SDS011;20145;43.118;25.694;2022-09-27T04:14:34;17.25;;;15.50;;
33844;SDS011;20145;43.118;25.694;2022-09-27T04:17:00;16.02;;;14.43;;
33844;SDS011;20145;43.118;25.694;2022-09-27T04:19:25;16.50;;;14.75;;
33844;SDS011;20145;43.118;25.694;2022-09-27T04:21:51;16.45;;;14.68;;
33844;SDS011;20145;43.118;25.694;2022-09-27T04:24:17;16.52;;;14.15;;
33844;SDS011;20145;43.118;25.694;2022-09-27T04:26:42;16.48;;;13.98;;
33844;SDS011;20145;43.118;25.694;2022-09-27T04:29:08;16.67;;;13.63;;
33844;SDS011;20145;43.118;25.694;2022-09-27T04:31:34;18.52;;;14.38;;
33844;SDS011;20145;43.118;25.694;2022-09-27T04:34:03;17.90;;;14.88;;
33844;SDS011;20145;43.118;25.694;2022-09-27T04:36:29;17.83;;;16.00;;
33844;SDS011;20145;43.118;25.694;2022-09-27T04:38:56;22.05;;;19.73;;
33844;SDS011;20145;43.118;25.694;2022-09-27T04:41:23;19.80;;;15.90;;
33844;SDS011;20145;43.118;25.694;2022-09-27T04:43:52;16.67;;;15.07;;
33844;SDS011;20145;43.118;25.694;2022-09-27T04:46:20;18.95;;;16.20;;
33844;SDS011;20145;43.118;25.694;2022-09-27T04:48:47;18.83;;;16.83;;
33844;SDS011;20145;43.118;25.694;2022-09-27T04:51:13;18.50;;;16.58;;
33844;SDS011;20145;43.118;25.694;2022-09-27T04:53:44;20.92;;;18.83;;
33844;SDS011;20145;43.118;25.694;2022-09-27T04:56:10;21.48;;;17.73;;
33844;SDS011;20145;43.118;25.694;2022-09-27T04:58:36;18.83;;;17.08;;
33844;SDS011;20145;43.118;25.694;2022-09-27T05:01:02;24.17;;;21.30;;
33844;SDS011;20145;43.118;25.694;2022-09-27T05:03:29;26.25;;;23.67;;
33844;SDS011;20145;43.118;25.694;2022-09-27T05:05:55;26.40;;;23.98;;
33844;SDS011;20145;43.118;25.694;2022-09-27T05:08:21;26.45;;;23.48;;
33844;SDS011;20145;43.118;25.694;2022-09-27T05:10:47;24.50;;;21.85;;
33844;SDS011;20145;43.118;25.694;2022-09-27T05:13:13;22.45;;;20.25;;
33844;SDS011;20145;43.118;25.694;2022-09-27T05:15:40;20.52;;;18.42;;
33844;SDS011;20145;43.118;25.694;2022-09-27T05:18:06;21.27;;;19.10;;
33844;SDS011;20145;43.118;25.694;2022-09-27T05:20:34;19.95;;;18.05;;
33844;SDS011;20145;43.118;25.694;2022-09-27T05:23:00;20.30;;;18.25;;
33844;SDS011;20145;43.118;25.694;2022-09-27T05:25:27;18.65;;;16.63;;
33844;SDS011;20145;43.118;25.694;2022-09-27T05:27:54;17.67;;;15.80;;
33844;SDS011;20145;43.118;25.694;2022-09-27T05:30:20;18.85;;;16.83;;
33844;SDS011;20145;43.118;25.694;2022-09-27T05:32:45;22.40;;;16.30;;
33844;SDS011;20145;43.118;25.694;2022-09-27T05:35:15;17.23;;;15.60;;
33844;SDS011;20145;43.118;25.694;2022-09-27T05:37:43;19.40;;;15.50;;
33844;SDS011;20145;43.118;25.694;2022-09-27T05:40:15;16.40;;;14.75;;
33844;SDS011;20145;43.118;25.694;2022-09-27T05:42:41;16.55;;;14.68;;
33844;SDS011;20145;43.118;25.694;2022-09-27T05:45:07;17.10;;;15.00;;
33844;SDS011;20145;43.118;25.694;2022-09-27T05:47:33;17.65;;;15.77;;
33844;SDS011;20145;43.118;25.694;2022-09-27T05:49:58;17.27;;;15.45;;
33844;SDS011;20145;43.118;25.694;2022-09-27T05:52:24;18.23;;;15.77;;
33844;SDS011;20145;43.118;25.694;2022-09-27T05:54:50;19.52;;;17.48;;
33844;SDS011;20145;43.118;25.694;2022-09-27T05:57:16;17.48;;;15.88;;
33844;SDS011;20145;43.118;25.694;2022-09-27T05:59:41;19.20;;;17.02;;
33844;SDS011;20145;43.118;25.694;2022-09-27T06:02:08;17.25;;;14.70;;
33844;SDS011;20145;43.118;25.694;2022-09-27T06:04:36;17.50;;;15.80;;
33844;SDS011;20145;43.118;25.694;2022-09-27T06:07:02;17.85;;;15.95;;
33844;SDS011;20145;43.118;25.694;2022-09-27T06:09:27;18.58;;;16.65;;
33844;SDS011;20145;43.118;25.694;2022-09-27T06:11:53;16.85;;;15.18;;
33844;SDS011;20145;43.118;25.694;2022-09-27T06:14:18;15.00;;;13.50;;
33844;SDS011;20145;43.118;25.694;2022-09-27T06:16:44;16.17;;;12.15;;
33844;SDS011;20145;43.118;25.694;2022-09-27T06:19:10;13.73;;;12.32;;
33844;SDS011;20145;43.118;25.694;2022-09-27T06:21:36;13.32;;;11.60;;
33844;SDS011;20145;43.118;25.694;2022-09-27T06:24:01;13.65;;;12.23;;
33844;SDS011;20145;43.118;25.694;2022-09-27T06:26:28;15.75;;;11.85;;
33844;SDS011;20145;43.118;25.694;2022-09-27T06:28:54;14.50;;;12.45;;
33844;SDS011;20145;43.118;25.694;2022-09-27T06:31:20;18.38;;;13.38;;
33844;SDS011;20145;43.118;25.694;2022-09-27T06:33:47;14.70;;;13.27;;
33844;SDS011;20145;43.118;25.694;2022-09-27T06:36:13;17.83;;;12.70;;
33844;SDS011;20145;43.118;25.694;2022-09-27T06:38:39;14.65;;;13.25;;
33844;SDS011;20145;43.118;25.694;2022-09-27T06:41:05;18.20;;;14.57;;
33844;SDS011;20145;43.118;25.694;2022-09-27T06:43:31;15.20;;;13.50;;
33844;SDS011;20145;43.118;25.694;2022-09-27T06:46:01;15.23;;;12.85;;
33844;SDS011;20145;43.118;25.694;2022-09-27T06:48:30;14.88;;;13.10;;
33844;SDS011;20145;43.118;25.694;2022-09-27T06:50:56;14.40;;;12.95;;
33844;SDS011;20145;43.118;25.694;2022-09-27T06:53:22;15.57;;;13.52;;
33844;SDS011;20145;43.118;25.694;2022-09-27T06:55:49;18.15;;;15.43;;
33844;SDS011;20145;43.118;25.694;2022-09-27T06:58:15;18.13;;;16.27;;
33844;SDS011;20145;43.118;25.694;2022-09-27T07:01:00;17.88;;;14.75;;
33844;SDS011;20145;43.118;25.694;2022-09-27T07:03:26;16.08;;;14.57;;
33844;SDS011;20145;43.118;25.694;2022-09-27T07:05:57;17.92;;;15.00;;
33844;SDS011;20145;43.118;25.694;2022-09-27T07:08:24;16.67;;;15.13;;
33844;SDS011;20145;43.118;25.694;2022-09-27T07:10:53;16.48;;;13.45;;
33844;SDS011;20145;43.118;25.694;2022-09-27T07:13:20;18.33;;;13.73;;
33844;SDS011;20145;43.118;25.694;2022-09-27T07:15:46;15.88;;;13.85;;
33844;SDS011;20145;43.118;25.694;2022-09-27T07:18:12;14.25;;;12.75;;
33844;SDS011;20145;43.118;25.694;2022-09-27T07:20:38;14.10;;;12.60;;
33844;SDS011;20145;43.118;25.694;2022-09-27T07:23:04;13.48;;;12.27;;
33844;SDS011;20145;43.118;25.694;2022-09-27T07:25:31;14.18;;;12.88;;
33844;SDS011;20145;43.118;25.694;2022-09-27T07:28:01;12.75;;;11.55;;
33844;SDS011;20145;43.118;25.694;2022-09-27T07:30:31;12.02;;;10.82;;
33844;SDS011;20145;43.118;25.694;2022-09-27T07:32:57;11.88;;;10.77;;
33844;SDS011;20145;43.118;25.694;2022-09-27T07:35:24;16.92;;;10.85;;
33844;SDS011;20145;43.118;25.694;2022-09-27T07:37:50;12.02;;;10.77;;
33844;SDS011;20145;43.118;25.694;2022-09-27T07:40:16;14.43;;;10.95;;
33844;SDS011;20145;43.118;25.694;2022-09-27T07:42:42;11.93;;;10.70;;
33844;SDS011;20145;43.118;25.694;2022-09-27T07:45:08;12.35;;;10.50;;
33844;SDS011;20145;43.118;25.694;2022-09-27T07:47:36;11.13;;;10.02;;
33844;SDS011;20145;43.118;25.694;2022-09-27T07:50:03;13.38;;;9.95;;
33844;SDS011;20145;43.118;25.694;2022-09-27T07:52:30;11.15;;;9.75;;
33844;SDS011;20145;43.118;25.694;2022-09-27T07:55:03;10.50;;;9.50;;
33844;SDS011;20145;43.118;25.694;2022-09-27T07:57:29;12.48;;;8.57;;
33844;SDS011;20145;43.118;25.694;2022-09-27T07:59:54;12.27;;;9.02;;
33844;SDS011;20145;43.118;25.694;2022-09-27T08:02:20;14.80;;;10.95;;
33844;SDS011;20145;43.118;25.694;2022-09-27T08:04:46;12.15;;;11.02;;
33844;SDS011;20145;43.118;25.694;2022-09-27T08:07:11;10.10;;;8.55;;
33844;SDS011;20145;43.118;25.694;2022-09-27T08:09:38;11.35;;;8.43;;
33844;SDS011;20145;43.118;25.694;2022-09-27T08:12:03;8.38;;;7.57;;
33844;SDS011;20145;43.118;25.694;2022-09-27T08:14:29;11.00;;;8.05;;
33844;SDS011;20145;43.118;25.694;2022-09-27T08:16:55;8.82;;;8.00;;
33844;SDS011;20145;43.118;25.694;2022-09-27T08:19:21;8.95;;;8.05;;
33844;SDS011;20145;43.118;25.694;2022-09-27T08:21:46;10.23;;;8.43;;
33844;SDS011;20145;43.118;25.694;2022-09-27T08:24:12;12.93;;;8.20;;
33844;SDS011;20145;43.118;25.694;2022-09-27T08:26:38;10.65;;;7.88;;
33844;SDS011;20145;43.118;25.694;2022-09-27T08:29:04;9.65;;;7.53;;
33844;SDS011;20145;43.118;25.694;2022-09-27T08:31:30;10.95;;;7.78;;
33844;SDS011;20145;43.118;25.694;2022-09-27T08:33:55;10.07;;;8.07;;
33844;SDS011;20145;43.118;25.694;2022-09-27T08:36:22;16.13;;;8.85;;
33844;SDS011;20145;43.118;25.694;2022-09-27T08:38:48;10.10;;;7.57;;
33844;SDS011;20145;43.118;25.694;2022-09-27T08:41:19;9.35;;;6.95;;
33844;SDS011;20145;43.118;25.694;2022-09-27T08:49:32;9.00;;;6.47;;
33844;SDS011;20145;43.118;25.694;2022-09-27T08:52:07;7.35;;;6.57;;
33844;SDS011;20145;43.118;25.694;2022-09-27T08:54:41;8.80;;;7.72;;
33844;SDS011;20145;43.118;25.694;2022-09-27T08:57:09;12.55;;;7.35;;
33844;SDS011;20145;43.118;25.694;2022-09-27T09:00:00;9.13;;;6.32;;
33844;SDS011;20145;43.118;25.694;2022-09-27T09:02:30;7.53;;;6.78;;
33844;SDS011;20145;43.118;25.694;2022-09-27T09:04:57;9.23;;;6.90;;
33844;SDS011;20145;43.118;25.694;2022-09-27T09:15:19;10.68;;;6.53;;
33844;SDS011;20145;43.118;25.694;2022-09-27T09:17:51;8.40;;;6.45;;
33844;SDS011;20145;43.118;25.694;2022-09-27T09:20:43;12.40;;;6.70;;
33844;SDS011;20145;43.118;25.694;2022-09-27T09:33:53;7.13;;;5.80;;
33844;SDS011;20145;43.118;25.694;2022-09-27T09:38:51;11.30;;;7.72;;
33844;SDS011;20145;43.118;25.694;2022-09-27T09:41:21;20.02;;;9.32;;
33844;SDS011;20145;43.118;25.694;2022-09-27T09:43:59;12.55;;;9.05;;
33844;SDS011;20145;43.118;25.694;2022-09-27T09:49:19;15.75;;;9.52;;
33844;SDS011;20145;43.118;25.694;2022-09-27T09:51:51;11.02;;;8.93;;
33844;SDS011;20145;43.118;25.694;2022-09-27T09:57:05;11.07;;;8.30;;
33844;SDS011;20145;43.118;25.694;2022-09-27T09:59:37;8.65;;;7.85;;
33844;SDS011;20145;43.118;25.694;2022-09-27T10:07:04;9.70;;;7.57;;
33844;SDS011;20145;43.118;25.694;2022-09-27T10:09:30;11.40;;;7.63;;
33844;SDS011;20145;43.118;25.694;2022-09-27T10:11:57;8.88;;;7.97;;
33844;SDS011;20145;43.118;25.694;2022-09-27T10:14:24;9.38;;;8.43;;
33844;SDS011;20145;43.118;25.694;2022-09-27T10:16:54;10.52;;;7.88;;
33844;SDS011;20145;43.118;25.694;2022-09-27T10:19:41;10.38;;;7.97;;
33844;SDS011;20145;43.118;25.694;2022-09-27T10:22:10;15.48;;;9.27;;
33844;SDS011;20145;43.118;25.694;2022-09-27T10:27:27;11.38;;;7.95;;
33844;SDS011;20145;43.118;25.694;2022-09-27T10:33:13;9.48;;;8.15;;
33844;SDS011;20145;43.118;25.694;2022-09-27T10:35:42;8.95;;;8.00;;
33844;SDS011;20145;43.118;25.694;2022-09-27T10:40:43;9.18;;;7.40;;
33844;SDS011;20145;43.118;25.694;2022-09-27T10:43:51;9.15;;;7.53;;
33844;SDS011;20145;43.118;25.694;2022-09-27T10:48:33;10.75;;;7.47;;
33844;SDS011;20145;43.118;25.694;2022-09-27T10:53:26;9.00;;;7.32;;
33844;SDS011;20145;43.118;25.694;2022-09-27T10:55:55;10.25;;;7.80;;
33844;SDS011;20145;43.118;25.694;2022-09-27T10:58:25;8.23;;;7.35;;
33844;SDS011;20145;43.118;25.694;2022-09-27T11:00:59;10.50;;;7.88;;
33844;SDS011;20145;43.118;25.694;2022-09-27T11:03:35;10.38;;;6.95;;
33844;SDS011;20145;43.118;25.694;2022-09-27T11:08:44;9.27;;;7.95;;
33844;SDS011;20145;43.118;25.694;2022-09-27T11:13:38;10.45;;;7.55;;
33844;SDS011;20145;43.118;25.694;2022-09-27T11:22:00;8.93;;;8.02;;
33844;SDS011;20145;43.118;25.694;2022-09-27T11:35:04;10.48;;;8.63;;
33844;SDS011;20145;43.118;25.694;2022-09-27T11:38:03;14.25;;;8.05;;
33844;SDS011;20145;43.118;25.694;2022-09-27T11:40:44;9.27;;;8.35;;
33844;SDS011;20145;43.118;25.694;2022-09-27T11:51:52;9.98;;;7.65;;
33844;SDS011;20145;43.118;25.694;2022-09-27T11:57:38;8.70;;;7.05;;
33844;SDS011;20145;43.118;25.694;2022-09-27T12:00:12;7.40;;;6.40;;
33844;SDS011;20145;43.118;25.694;2022-09-27T12:08:17;8.50;;;7.10;;
33844;SDS011;20145;43.118;25.694;2022-09-27T12:11:14;8.75;;;7.32;;
33844;SDS011;20145;43.118;25.694;2022-09-27T12:13:49;8.32;;;7.10;;
33844;SDS011;20145;43.118;25.694;2022-09-27T12:16:21;6.95;;;6.20;;
33844;SDS011;20145;43.118;25.694;2022-09-27T12:18:50;11.32;;;5.90;;
33844;SDS011;20145;43.118;25.694;2022-09-27T12:21:18;7.28;;;5.72;;
33844;SDS011;20145;43.118;25.694;2022-09-27T12:23:46;6.93;;;5.78;;
33844;SDS011;20145;43.118;25.694;2022-09-27T12:26:39;6.18;;;5.60;;
33844;SDS011;20145;43.118;25.694;2022-09-27T12:29:16;7.25;;;5.50;;
33844;SDS011;20145;43.118;25.694;2022-09-27T12:31:53;6.80;;;5.47;;
33844;SDS011;20145;43.118;25.694;2022-09-27T12:37:47;5.60;;;4.97;;
33844;SDS011;20145;43.118;25.694;2022-09-27T12:40:25;6.03;;;4.30;;
33844;SDS011;20145;43.118;25.694;2022-09-27T12:42:59;8.80;;;5.00;;
33844;SDS011;20145;43.118;25.694;2022-09-27T12:51:18;4.75;;;4.35;;
33844;SDS011;20145;43.118;25.694;2022-09-27T13:13:09;3.83;;;3.40;;
33844;SDS011;20145;43.118;25.694;2022-09-27T13:15:37;5.25;;;3.38;;
33844;SDS011;20145;43.118;25.694;2022-09-27T13:18:27;3.45;;;2.78;;
33844;SDS011;20145;43.118;25.694;2022-09-27T13:20:56;5.15;;;2.50;;
33844;SDS011;20145;43.118;25.694;2022-09-27T13:25:52;3.05;;;2.70;;
33844;SDS011;20145;43.118;25.694;2022-09-27T13:30:58;4.78;;;2.80;;
33844;SDS011;20145;43.118;25.694;2022-09-27T13:44:14;4.40;;;2.80;;
33844;SDS011;20145;43.118;25.694;2022-09-27T13:50:00;4.88;;;3.08;;
33844;SDS011;20145;43.118;25.694;2022-09-27T13:52:37;4.72;;;2.90;;
33844;SDS011;20145;43.118;25.694;2022-09-27T14:00:31;2.95;;;2.45;;
33844;SDS011;20145;43.118;25.694;2022-09-27T14:03:04;3.10;;;2.50;;
33844;SDS011;20145;43.118;25.694;2022-09-27T14:08:37;2.80;;;2.60;;
33844;SDS011;20145;43.118;25.694;2022-09-27T14:11:20;2.80;;;2.60;;
33844;SDS011;20145;43.118;25.694;2022-09-27T14:13:50;5.30;;;2.78;;
33844;SDS011;20145;43.118;25.694;2022-09-27T14:16:16;3.92;;;3.47;;
33844;SDS011;20145;43.118;25.694;2022-09-27T14:18:48;4.93;;;3.30;;
33844;SDS011;20145;43.118;25.694;2022-09-27T14:26:49;3.88;;;3.17;;
33844;SDS011;20145;43.118;25.694;2022-09-27T14:29:19;2.67;;;2.47;;
33844;SDS011;20145;43.118;25.694;2022-09-27T14:31:46;3.67;;;2.65;;
33844;SDS011;20145;43.118;25.694;2022-09-27T14:34:27;7.72;;;3.10;;
33844;SDS011;20145;43.118;25.694;2022-09-27T14:36:53;2.88;;;2.58;;
33844;SDS011;20145;43.118;25.694;2022-09-27T14:39:38;5.82;;;3.42;;
33844;SDS011;20145;43.118;25.694;2022-09-27T14:42:16;4.28;;;2.70;;
33844;SDS011;20145;43.118;25.694;2022-09-27T14:44:48;5.63;;;2.88;;
33844;SDS011;20145;43.118;25.694;2022-09-27T14:47:19;3.70;;;2.85;;
33844;SDS011;20145;43.118;25.694;2022-09-27T14:49:56;3.42;;;2.33;;
33844;SDS011;20145;43.118;25.694;2022-09-27T14:52:33;3.00;;;2.65;;
33844;SDS011;20145;43.118;25.694;2022-09-27T14:55:07;4.43;;;2.83;;
33844;SDS011;20145;43.118;25.694;2022-09-27T14:57:34;3.88;;;3.20;;
33844;SDS011;20145;43.118;25.694;2022-09-27T15:00:22;4.70;;;3.03;;
33844;SDS011;20145;43.118;25.694;2022-09-27T15:02:50;3.55;;;2.63;;
33844;SDS011;20145;43.118;25.694;2022-09-27T15:05:23;6.38;;;3.22;;
33844;SDS011;20145;43.118;25.694;2022-09-27T15:07:56;3.40;;;3.10;;
33844;SDS011;20145;43.118;25.694;2022-09-27T15:10:26;5.07;;;3.47;;
33844;SDS011;20145;43.118;25.694;2022-09-27T15:12:55;3.67;;;3.00;;
33844;SDS011;20145;43.118;25.694;2022-09-27T15:15:28;4.28;;;3.45;;
33844;SDS011;20145;43.118;25.694;2022-09-27T15:17:59;13.77;;;3.65;;
33844;SDS011;20145;43.118;25.694;2022-09-27T15:20:30;8.65;;;3.58;;
33844;SDS011;20145;43.118;25.694;2022-09-27T15:22:58;4.50;;;3.35;;
33844;SDS011;20145;43.118;25.694;2022-09-27T15:25:32;5.88;;;3.40;;
33844;SDS011;20145;43.118;25.694;2022-09-27T15:28:04;4.38;;;3.00;;
33844;SDS011;20145;43.118;25.694;2022-09-27T15:30:40;6.13;;;3.17;;
33844;SDS011;20145;43.118;25.694;2022-09-27T15:33:24;6.63;;;3.60;;
33844;SDS011;20145;43.118;25.694;2022-09-27T15:35:53;6.13;;;4.03;;
33844;SDS011;20145;43.118;25.694;2022-09-27T15:40:57;7.22;;;4.43;;
33844;SDS011;20145;43.118;25.694;2022-09-27T15:43:30;5.38;;;4.57;;
33844;SDS011;20145;43.118;25.694;2022-09-27T15:51:58;5.53;;;5.03;;
33844;SDS011;20145;43.118;25.694;2022-09-27T15:54:29;6.75;;;5.68;;
33844;SDS011;20145;43.118;25.694;2022-09-27T15:56:59;11.27;;;6.85;;
33844;SDS011;20145;43.118;25.694;2022-09-27T15:59:29;8.02;;;6.05;;
33844;SDS011;20145;43.118;25.694;2022-09-27T16:02:01;6.78;;;6.18;;
33844;SDS011;20145;43.118;25.694;2022-09-27T16:04:30;6.13;;;5.03;;
33844;SDS011;20145;43.118;25.694;2022-09-27T16:06:57;7.88;;;5.55;;
33844;SDS011;20145;43.118;25.694;2022-09-27T16:09:24;5.70;;;5.10;;
33844;SDS011;20145;43.118;25.694;2022-09-27T16:11:50;7.38;;;6.38;;
33844;SDS011;20145;43.118;25.694;2022-09-27T16:14:16;8.82;;;7.78;;
33844;SDS011;20145;43.118;25.694;2022-09-27T16:16:43;7.63;;;6.50;;
33844;SDS011;20145;43.118;25.694;2022-09-27T16:19:10;9.85;;;5.90;;
33844;SDS011;20145;43.118;25.694;2022-09-27T16:21:36;6.60;;;5.13;;
33844;SDS011;20145;43.118;25.694;2022-09-27T16:24:03;14.02;;;6.82;;
33844;SDS011;20145;43.118;25.694;2022-09-27T16:26:29;22.83;;;11.75;;
33844;SDS011;20145;43.118;25.694;2022-09-27T16:28:55;16.55;;;9.85;;
33844;SDS011;20145;43.118;25.694;2022-09-27T16:31:21;20.27;;;11.15;;
33844;SDS011;20145;43.118;25.694;2022-09-27T16:33:47;18.10;;;10.57;;
33844;SDS011;20145;43.118;25.694;2022-09-27T16:36:14;17.85;;;11.15;;
33844;SDS011;20145;43.118;25.694;2022-09-27T16:38:46;24.73;;;10.95;;
33844;SDS011;20145;43.118;25.694;2022-09-27T16:41:13;16.15;;;9.48;;
33844;SDS011;20145;43.118;25.694;2022-09-27T16:43:39;16.60;;;7.82;;
33844;SDS011;20145;43.118;25.694;2022-09-27T16:46:07;9.93;;;7.97;;
33844;SDS011;20145;43.118;25.694;2022-09-27T16:48:36;12.60;;;9.02;;
33844;SDS011;20145;43.118;25.694;2022-09-27T16:51:20;11.10;;;9.23;;
33844;SDS011;20145;43.118;25.694;2022-09-27T16:54:04;12.43;;;10.07;;
33844;SDS011;20145;43.118;25.694;2022-09-27T16:56:31;17.05;;;9.82;;
33844;SDS011;20145;43.118;25.694;2022-09-27T16:59:00;10.93;;;9.18;;
33844;SDS011;20145;43.118;25.694;2022-09-27T17:01:29;13.48;;;8.90;;
33844;SDS011;20145;43.118;25.694;2022-09-27T17:03:55;12.73;;;9.10;;
33844;SDS011;20145;43.118;25.694;2022-09-27T17:06:21;34.80;;;11.00;;
33844;SDS011;20145;43.118;25.694;2022-09-27T17:08:47;11.00;;;8.13;;
33844;SDS011;20145;43.118;25.694;2022-09-27T17:11:14;13.43;;;8.50;;
33844;SDS011;20145;43.118;25.694;2022-09-27T17:13:42;15.32;;;8.00;;
33844;SDS011;20145;43.118;25.694;2022-09-27T17:16:11;9.27;;;7.35;;
33844;SDS011;20145;43.118;25.694;2022-09-27T17:18:37;10.68;;;6.95;;
33844;SDS011;20145;43.118;25.694;2022-09-27T17:21:04;10.50;;;7.63;;
33844;SDS011;20145;43.118;25.694;2022-09-27T17:23:31;9.20;;;7.63;;
33844;SDS011;20145;43.118;25.694;2022-09-27T17:26:04;9.25;;;8.35;;
33844;SDS011;20145;43.118;25.694;2022-09-27T17:28:32;10.57;;;9.15;;
33844;SDS011;20145;43.118;25.694;2022-09-27T17:31:02;12.20;;;10.95;;
33844;SDS011;20145;43.118;25.694;2022-09-27T17:33:29;11.95;;;10.75;;
33844;SDS011;20145;43.118;25.694;2022-09-27T17:36:01;10.73;;;9.40;;
33844;SDS011;20145;43.118;25.694;2022-09-27T17:38:30;11.70;;;10.60;;
33844;SDS011;20145;43.118;25.694;2022-09-27T17:40:59;11.70;;;9.13;;
33844;SDS011;20145;43.118;25.694;2022-09-27T17:43:26;9.33;;;8.43;;
33844;SDS011;20145;43.118;25.694;2022-09-27T17:45:52;11.65;;;10.10;;
33844;SDS011;20145;43.118;25.694;2022-09-27T17:48:18;48.35;;;25.73;;
33844;SDS011;20145;43.118;25.694;2022-09-27T17:51:02;29.63;;;18.17;;
33844;SDS011;20145;43.118;25.694;2022-09-27T17:53:27;26.80;;;15.43;;
33844;SDS011;20145;43.118;25.694;2022-09-27T17:55:58;9.80;;;8.52;;
33844;SDS011;20145;43.118;25.694;2022-09-27T17:58:25;13.05;;;10.70;;
33844;SDS011;20145;43.118;25.694;2022-09-27T18:00:50;11.10;;;9.98;;
33844;SDS011;20145;43.118;25.694;2022-09-27T18:03:16;10.48;;;8.85;;
33844;SDS011;20145;43.118;25.694;2022-09-27T18:05:42;13.50;;;10.35;;